Latest Weather Observations for Maria Island

IDT60901

Issued at 9:21 pm EST Friday 20 May 2022 (issued every 10 minutes, with the page automatically refreshed every 10 minutes)

About weather observations | Map of Hobart area stations | Latest observations for Hobart area | Other Formats
Station Details ID: 092124 Name: MARIA ISLAND (POINT LESUEUR) Lat: -42.66 Lon: 148.02 Height: 28.0 m
Data from the previous 72 hours. | See also: Recent months at Maria Island
Date/Time
EST
Temp
°C
App
Temp
°C
Dew
Point
°C
Rel
Hum
%
Delta-T
°C
Wind Press
QNH
hPa
Press
MSL
hPa
Rain since
9am
mm
Dir  Spd
km/h
Gust
km/h
Spd
kts
Gust
kts
20/09:00pm 9.1 6.0 7.4 89 0.8 WNW 13 15 7 8 1035.2 1035.3 0.0
20/08:30pm 9.0 6.3 7.3 89 0.8 W 11 13 6 7 1034.9 1035.0 0.0
20/08:00pm 9.8 7.2 7.6 86 1.0 WSW 11 13 6 7 1034.8 1034.9 0.0
20/07:30pm 10.0 7.7 7.4 84 1.2 WSW 9 11 5 6 1034.7 1034.8 0.0
20/07:00pm 10.0 7.3 7.4 84 1.2 WSW 11 15 6 8 1034.6 1034.7 0.0
20/06:30pm 10.3 9.3 7.2 81 1.5 NNW 2 6 1 3 1034.5 1034.6 0.0
20/06:00pm 10.1 9.0 7.0 81 1.4 NNE 2 4 1 2 1034.4 1034.5 0.0
20/05:30pm 9.8 7.2 6.3 79 1.6 SE 9 11 5 6 1034.2 1034.3 0.0
20/05:00pm 10.8 7.9 6.4 74 2.0 SSE 11 15 6 8 1034.1 1034.2 0.0
20/04:30pm 11.5 7.8 6.4 71 2.4 S 15 17 8 9 1033.9 1034.0 0.0
20/04:00pm 11.6 7.5 6.3 70 2.5 S 17 20 9 11 1033.8 1033.9 0.0
20/03:30pm 11.8 7.3 5.9 67 2.8 SSW 19 20 10 11 1033.6 1033.7 0.0
20/03:00pm 11.7 6.4 7.0 73 2.2 SSW 24 26 13 14 1033.4 1033.5 0.0
20/02:30pm 12.2 7.4 5.8 65 3.0 SSW 20 24 11 13 1033.3 1033.4 0.0
20/02:00pm 12.3 7.5 5.7 64 3.1 SSW 20 24 11 13 1033.3 1033.4 0.0
20/01:30pm 13.1 9.0 6.0 62 3.4 SW 17 20 9 11 1033.2 1033.3 0.0
20/01:00pm 12.8 8.1 6.2 64 3.1 SW 20 26 11 14 1033.3 1033.4 0.0
20/12:30pm 12.4 7.3 6.0 65 3.0 SSW 22 30 12 16 1033.3 1033.4 0.0
20/12:00pm 12.2 7.5 6.0 66 2.9 SW 20 24 11 13 1033.5 1033.6 0.0
20/11:30am 12.4 7.8 6.5 67 2.8 SW 20 26 11 14 1033.6 1033.7 0.0
20/11:00am 11.7 6.3 6.2 69 2.6 SW 24 32 13 17 1033.7 1033.8 0.0
20/10:30am 11.6 5.6 6.9 73 2.2 SW 28 33 15 18 1033.6 1033.7 0.0
20/10:00am 11.2 6.8 6.5 73 2.2 SW 19 28 10 15 1033.6 1033.7 0.0
20/09:30am 11.0 7.6 6.0 71 2.3 W 13 17 7 9 1033.4 1033.5 0.0
20/09:00am 9.8 5.9 5.4 74 2.0 WNW 15 20 8 11 1033.4 1033.5 0.0
20/08:30am 9.5 4.7 4.9 73 2.1 WNW 19 24 10 13 1033.2 1033.3 0.0
20/08:00am 9.4 5.0 4.8 73 2.0 WNW 17 19 9 10 1032.9 1033.0 0.0
20/07:30am 8.9 3.8 4.3 73 2.0 WNW 20 24 11 13 1032.5 1032.6 0.0
20/07:00am 9.0 3.9 4.2 72 2.1 WNW 20 22 11 12 1032.2 1032.3 0.0
20/06:30am 9.0 4.5 4.4 73 2.0 WNW 17 20 9 11 1032.0 1032.1 0.0
20/06:00am 8.7 3.9 4.5 75 1.8 WNW 19 22 10 12 1031.7 1031.8 0.0
20/05:30am 8.6 3.8 4.6 76 1.8 W 19 22 10 12 1031.3 1031.4 0.0
20/05:00am 9.0 4.2 4.6 74 1.9 WNW 19 22 10 12 1031.2 1031.3 0.0
20/04:30am 9.7 4.8 3.9 67 2.5 W 19 22 10 12 1030.9 1031.0 0.0
20/04:00am 9.8 5.0 4.4 69 2.4 W 19 22 10 12 1030.9 1031.0 0.0
20/03:30am 10.0 4.5 4.0 66 2.6 WSW 22 32 12 17 1030.6 1030.7 0.0
20/03:00am 10.2 4.3 3.9 65 2.8 WSW 24 32 13 17 1030.3 1030.4 0.0
20/02:30am 10.6 4.7 3.9 63 3.0 WSW 24 30 13 16 1030.3 1030.4 0.0
20/02:00am 10.2 5.0 3.7 64 2.8 W 20 24 11 13 1030.2 1030.3 0.0
20/01:30am 9.8 4.9 4.0 67 2.6 W 19 24 10 13 1030.1 1030.2 0.0
20/01:00am 9.9 4.6 3.2 63 2.9 WNW 20 24 11 13 1030.1 1030.2 0.0
20/12:30am 10.1 5.0 3.2 62 3.0 WNW 19 24 10 13 1030.3 1030.4 0.0
20/12:00am 10.0 5.7 3.3 63 2.9 WNW 15 19 8 10 1030.1 1030.2 0.0
 
Date/Time
EST
Temp
°C
App
Temp
°C
Dew
Point
°C
Rel
Hum
%
Delta-T
°C
Wind Press
QNH
hPa
Press
MSL
hPa
Rain since
9am
mm
Dir  Spd
km/h
Gust
km/h
Spd
kts
Gust
kts
19/11:30pm 10.3 5.3 3.6 63 2.9 W 19 22 10 12 1029.7 1029.8 0.0
19/11:00pm 10.2 4.9 3.0 61 3.1 WSW 20 24 11 13 1029.5 1029.6 0.0
19/10:30pm 10.5 4.1 3.1 60 3.2 WSW 26 39 14 21 1029.4 1029.5 0.0
19/10:00pm 10.8 3.3 3.6 61 3.1 WSW 32 41 17 22 1028.9 1028.9 0.0
19/09:30pm 11.0 3.5 3.5 60 3.3 WSW 32 39 17 21 1028.5 1028.5 0.0
19/09:00pm 11.0 3.3 3.5 60 3.3 WSW 33 46 18 25 1028.4 1028.4 0.0
19/08:30pm 11.1 3.8 4.3 63 3.1 WSW 32 39 17 21 1028.1 1028.1 0.0
19/08:00pm 11.0 4.4 4.2 63 3.0 WSW 28 33 15 18 1027.6 1027.6 0.0
19/07:30pm 10.9 5.9 3.5 60 3.3 SW 19 24 10 13 1027.5 1027.5 0.0
19/07:00pm 10.9 7.0 3.5 60 3.2 WSW 13 19 7 10 1027.5 1027.5 0.0
19/06:30pm 11.0 3.3 3.3 59 3.4 WSW 33 44 18 24 1026.8 1026.8 0.0
19/06:00pm 11.1 3.0 3.2 58 3.4 SW 35 43 19 23 1026.2 1026.2 0.0
19/05:30pm 11.2 4.1 3.7 60 3.3 SW 30 37 16 20 1025.9 1025.9 0.0
19/05:00pm 11.5 3.1 3.5 58 3.5 SW 37 44 20 24 1025.1 1025.1 0.0
19/04:30pm 11.7 3.6 3.2 56 3.7 SW 35 52 19 28 1024.5 1024.5 0.0
19/04:00pm 12.1 3.5 2.6 52 4.1 SW 37 46 20 25 1024.2 1024.2 0.0
19/03:30pm 12.5 3.7 3.5 54 4.0 SW 39 52 21 28 1023.6 1023.6 0.0
19/03:00pm 12.5 2.9 3.2 53 4.1 SW 43 54 23 29 1023.2 1023.2 0.0
19/02:30pm 12.4 2.8 3.4 54 4.0 SW 43 52 23 28 1022.5 1022.5 0.0
19/02:00pm 12.4 1.4 5.1 61 3.4 SW 52 65 28 35 1021.9 1021.9 0.0
19/01:55pm 12.8 2.9 4.8 58 3.7 SW 46 65 25 35 1021.8 1021.8 0.0
19/01:30pm 12.7 1.5 3.9 55 4.0 SW 52 63 28 34 1021.4 1021.4 0.0
19/01:00pm 12.0 1.8 5.2 63 3.1 SW 48 59 26 32 1021.0 1021.0 0.0
19/12:42pm 12.1 2.8 5.7 65 3.0 SW 44 63 24 34 1020.9 1020.9 0.0
19/12:30pm 12.1 3.7 5.7 65 3.0 SW 39 48 21 26 1021.1 1021.1 0.0
19/12:04pm 11.8 1.4 6.1 68 2.7 SW 50 70 27 38 1020.9 1020.9 0.0
19/12:00pm 11.8 0.6 6.1 68 2.7 SW 54 70 29 38 1020.9 1020.9 0.0
19/11:33am 11.5 -0.8 6.8 73 2.2 SSW 61 80 33 43 1020.3 1020.3 0.0
19/11:30am 11.5 -1.3 6.6 72 2.3 SSW 63 80 34 43 1020.3 1020.3 0.0
19/11:21am 12.1 1.7 6.2 67 2.8 SW 50 72 27 39 1020.0 1020.0 0.0
19/11:00am 11.7 0.6 6.4 70 2.5 SW 54 63 29 34 1019.8 1019.8 0.0
19/10:30am 12.3 0.6 5.5 63 3.2 SW 56 74 30 40 1019.1 1019.1 0.0
19/10:00am 12.0 1.5 5.6 65 3.0 SW 50 70 27 38 1018.7 1018.7 0.0
19/09:55am 11.9 1.3 5.3 64 3.0 SW 50 70 27 38 1018.4 1018.4 0.0
19/09:30am 11.4 0.0 6.5 72 2.3 SW 56 70 30 38 1018.4 1018.4 0.0
19/09:02am 11.5 3.1 5.4 66 2.8 SW 39 61 21 33 1018.5 1018.5 0.0
19/09:00am 11.6 3.1 5.3 65 2.9 SW 39 48 21 26 1018.5 1018.5 0.2
19/08:30am 11.4 2.8 4.8 64 3.0 WSW 39 52 21 28 1018.3 1018.3 0.2
19/08:06am 11.2 4.5 3.7 60 3.3 WSW 28 48 15 26 1017.7 1017.7 0.2
19/08:00am 11.0 5.1 3.8 61 3.2 WSW 24 35 13 19 1017.7 1017.7 0.2
19/07:30am 10.5 5.8 3.3 61 3.1 W 17 24 9 13 1017.2 1017.2 0.2
19/07:00am 10.6 5.5 3.9 63 3.0 WSW 20 28 11 15 1016.8 1016.8 0.2
19/06:30am 10.3 3.8 2.9 60 3.2 WSW 26 33 14 18 1016.5 1016.5 0.2
19/06:00am 10.3 4.2 2.7 59 3.3 WSW 24 32 13 17 1016.3 1016.3 0.2
19/05:30am 10.0 4.2 2.4 59 3.2 W 22 33 12 18 1015.8 1015.8 0.2
19/05:00am 10.1 5.8 3.2 62 3.0 W 15 26 8 14 1015.7 1015.7 0.2
19/04:30am 9.8 4.5 3.1 63 2.9 WNW 20 28 11 15 1015.5 1015.5 0.2
19/04:00am 9.9 4.6 3.2 63 2.9 W 20 28 11 15 1015.3 1015.3 0.2
19/03:30am 10.1 3.4 3.4 63 2.9 W 28 35 15 19 1015.1 1015.1 0.2
19/03:00am 10.0 4.8 3.5 64 2.8 WSW 20 28 11 15 1015.2 1015.2 0.2
19/02:30am 9.8 6.0 3.8 66 2.6 W 13 19 7 10 1015.4 1015.4 0.2
19/02:00am 10.1 6.3 3.8 65 2.8 W 13 19 7 10 1015.0 1015.0 0.2
19/01:30am 10.2 4.3 3.7 64 2.9 WSW 24 35 13 19 1014.9 1014.9 0.2
19/01:00am 10.4 2.5 4.1 65 2.8 WSW 35 48 19 26 1014.4 1014.4 0.2
19/12:30am 10.4 3.8 4.1 65 2.8 WSW 28 44 15 24 1014.0 1014.0 0.2
19/12:00am 10.2 4.7 3.9 65 2.8 WSW 22 37 12 20 1013.6 1013.6 0.2
 
Date/Time
EST
Temp
°C
App
Temp
°C
Dew
Point
°C
Rel
Hum
%
Delta-T
°C
Wind Press
QNH
hPa
Press
MSL
hPa
Rain since
9am
mm
Dir  Spd
km/h
Gust
km/h
Spd
kts
Gust
kts
18/11:30pm 9.9 6.0 3.2 63 2.9 W 13 20 7 11 1013.5 1013.5 0.2
18/11:00pm 9.9 7.2 2.7 61 3.1 WSW 6 13 3 7 1013.5 1013.5 0.0
18/10:30pm 10.1 7.3 2.9 61 3.1 N 7 9 4 5 1013.2 1013.2 0.0
18/10:00pm 9.7 4.9 2.8 62 3.0 W 17 26 9 14 1012.7 1012.7 0.0
18/09:30pm 10.0 4.4 3.5 64 2.8 W 22 32 12 17 1012.4 1012.4 0.0
18/09:00pm 10.2 3.6 4.4 67 2.6 WSW 28 33 15 18 1012.0 1012.0 0.0
18/08:30pm 10.2 4.2 3.5 63 2.9 WSW 24 32 13 17 1011.9 1011.9 0.0
18/08:00pm 10.4 2.5 4.1 65 2.8 WSW 35 44 19 24 1011.4 1011.4 0.0
18/07:30pm 10.6 2.5 3.4 61 3.2 WSW 35 52 19 28 1011.1 1011.1 0.0
18/07:00pm 10.9 2.5 3.5 60 3.3 SW 37 50 20 27 1010.8 1010.8 0.0
18/06:54pm 10.8 2.3 3.1 59 3.4 SW 37 50 20 27 1010.6 1010.6 0.0
18/06:30pm 10.7 4.5 4.2 64 2.9 WSW 26 35 14 19 1010.5 1010.5 0.0
18/06:00pm 11.0 3.0 4.0 62 3.1 WSW 35 52 19 28 1009.6 1009.6 0.0
18/05:30pm 10.9 3.6 4.4 64 2.9 SW 32 43 17 23 1009.2 1009.2 0.0
18/05:00pm 11.1 0.6 3.9 61 3.2 SW 48 61 26 33 1008.3 1008.3 0.0
18/04:42pm 11.2 1.7 3.7 60 3.3 SW 43 61 23 33 1007.9 1007.9 0.0
18/04:30pm 11.3 1.1 3.1 57 3.6 SW 46 63 25 34 1007.7 1007.7 0.0
18/04:14pm 11.4 1.8 3.4 58 3.5 SW 43 63 23 34 1007.3 1007.3 0.0
18/04:00pm 11.6 2.4 3.6 58 3.6 SW 41 50 22 27 1007.1 1007.1 0.0
18/03:30pm 11.9 3.7 4.9 62 3.2 SW 37 54 20 29 1006.6 1006.6 0.0
18/03:23pm 11.9 4.4 4.4 60 3.4 SW 33 54 18 29 1006.4 1006.4 0.0
18/03:00pm 12.1 3.4 4.1 58 3.6 SW 39 52 21 28 1006.1 1006.1 0.0
18/02:49pm 12.1 4.2 4.6 60 3.4 SW 35 57 19 31 1005.9 1005.9 0.0
18/02:30pm 12.1 3.8 4.3 59 3.5 SW 37 48 20 26 1005.5 1005.5 0.0
18/02:08pm 11.9 5.3 4.4 60 3.4 WSW 28 56 15 30 1005.2 1005.2 0.0
18/02:00pm 11.5 5.4 4.7 63 3.1 WSW 26 39 14 21 1005.3 1005.3 0.0
18/01:30pm 11.5 4.4 5.6 67 2.7 SW 32 39 17 21 1004.9 1004.9 0.0
18/01:00pm 11.1 6.9 5.6 69 2.6 WSW 17 22 9 12 1004.8 1004.8 0.0
18/12:30pm 11.0 6.3 6.2 72 2.2 W 20 28 11 15 1004.5 1004.5 0.0
18/12:00pm 10.6 4.0 6.2 74 2.1 W 30 37 16 20 1004.3 1004.3 0.0
18/11:30am 11.3 3.8 4.7 64 3.0 W 33 52 18 28 1004.0 1004.0 0.0
18/11:02am 11.8 4.2 3.8 58 3.6 W 33 56 18 30 1003.6 1003.6 0.0
18/11:00am 11.9 4.5 3.9 58 3.6 W 32 46 17 25 1003.7 1003.7 0.0
18/10:30am 11.7 4.0 3.5 57 3.6 W 33 46 18 25 1003.4 1003.4 0.0
18/10:00am 11.8 5.4 3.3 56 3.8 NW 26 37 14 20 1003.3 1003.3 0.0
18/09:30am 11.4 4.0 4.2 61 3.2 NNW 32 39 17 21 1003.2 1003.2 0.0
18/09:00am 10.6 3.5 3.4 61 3.2 NW 30 39 16 21 1002.9 1002.9 0.0
18/08:30am 10.1 3.6 2.9 61 3.1 NW 26 37 14 20 1002.6 1002.6 0.0
18/08:00am 9.6 3.5 2.9 63 2.9 NW 24 35 13 19 1002.6 1002.6 0.0
18/07:30am 9.1 2.7 3.1 66 2.6 WNW 26 32 14 17 1002.5 1002.5 0.0
18/07:00am 9.1 1.9 3.1 66 2.6 WNW 30 37 16 20 1002.3 1002.3 0.0
18/06:30am 9.3 1.5 3.1 65 2.7 WNW 33 43 18 23 1002.1 1002.1 0.0
18/06:00am 9.2 1.6 3.0 65 2.7 NW 32 46 17 25 1002.1 1002.1 0.0
18/05:30am 9.4 1.2 2.9 64 2.8 NW 35 46 19 25 1002.4 1002.4 0.0
18/05:00am 9.4 2.2 2.9 64 2.8 NW 30 43 16 23 1002.1 1002.1 0.0
18/04:30am 9.4 1.2 2.7 63 2.9 WNW 35 46 19 25 1002.1 1002.1 0.0
18/04:00am 9.4 1.7 2.5 62 2.9 WNW 32 43 17 23 1002.0 1002.0 0.0
18/03:30am 9.7 1.6 3.4 65 2.7 NW 35 44 19 24 1002.0 1002.0 0.0
18/03:00am 9.6 2.9 3.6 66 2.6 NW 28 35 15 19 1002.4 1002.4 0.0
18/02:30am 9.7 3.6 2.8 62 3.0 NW 24 33 13 18 1002.9 1002.9 0.0
18/02:00am 9.6 3.6 3.1 64 2.8 NW 24 32 13 17 1002.9 1002.9 0.0
18/01:30am 9.4 2.7 3.4 66 2.6 WNW 28 41 15 22 1002.5 1002.5 0.0
18/01:00am 9.6 2.2 3.8 67 2.6 W 32 50 17 27 1002.6 1002.6 0.0
18/12:36am 10.0 1.7 4.0 66 2.6 WNW 37 56 20 30 1002.6 1002.6 0.0
18/12:30am 10.1 1.0 4.0 66 2.7 WNW 41 56 22 30 1002.3 1002.3 0.0
18/12:00am 10.0 1.3 4.2 67 2.6 WNW 39 52 21 28 1002.5 1002.5 0.0
 
Date/Time
EST
Temp
°C
App
Temp
°C
Dew
Point
°C
Rel
Hum
%
Delta-T
°C
Wind Press
QNH
hPa
Press
MSL
hPa
Rain since
9am
mm
Dir  Spd
km/h
Gust
km/h
Spd
kts
Gust
kts
17/11:30pm 9.9 2.6 4.3 68 2.5 WNW 32 39 17 21 1002.9 1002.9 0.0
17/11:00pm 10.2 1.9 4.4 67 2.6 WNW 37 50 20 27 1003.1 1003.1 0.0
17/10:30pm 10.0 2.5 4.2 67 2.6 WNW 33 43 18 23 1003.4 1003.4 0.0
17/10:00pm 9.8 2.9 4.4 69 2.4 WNW 30 41 16 22 1004.0 1004.0 0.0
17/09:39pm 10.1 2.8 4.7 69 2.4 WNW 32 50 17 27 1004.0 1004.0 0.0
17/09:30pm 10.3 1.7 4.5 67 2.6 WNW 39 54 21 29 1003.8 1003.8 0.0

Latest Capital City Observations: Canberra | Sydney | Melbourne | Brisbane | Adelaide | Perth | Hobart | Darwin

Other formats

Comma delimited format used in spreadsheet applications
http://www.bom.gov.au/fwo/IDT60901/IDT60901.95988.axf

JavaScript Object Notation format (JSON) in row-major order
http://www.bom.gov.au/fwo/IDT60901/IDT60901.95988.json

Data quality

Most of these data are generated automatically and are frequently updated. Quality checks on data are not normally performed. It is possible for incorrect values to appear. Refer to information at About Latest Weather Observations and please check the disclaimer before using these data.